NCAR-RAP Real-Time Weather Data

Output produced by METARs form (17 October 2018  17:15 UTC)
found at http://weather.rap.ucar.edu/surface/
 
RODN 171556Z 02004KT 10SM BKN043 21/18 A2991 RMK AO2A SLP135 T02090181 $
RODN 171456Z 05004KT 10SM OVC038 21/18 A2991 RMK AO2A SLP135 T02090181 402300205 50004 $
RODN 171356Z 05005KT 10SM OVC034 21/18 A2990 RMK AO2A SLP131 T02070181 $
RODN 171316Z 05005KT 10SM OVC033 21/18 A2990 RMK AO2A SLP131 $
RODN 171256Z 05006KT 10SM OVC028 21/18 A2991 RMK AO2A OVC V BKN SLP135 T02050177 $
RODN 171246Z 05006KT 10SM BKN028 OVC034 21/18 A2991 RMK AO2A CIG 028V034 BKN V SCT SLP135 $
RODN 171156Z COR 04009KT 10SM OVC034 21/18 A2990 RMK AO2A SLP131 60005 T02100182 10228 20210 52018 $ COR 1202
RODN 171056Z 01008KT 5SM -RA OVC031 21/18 A2989 RMK AO2A SLP128 T02120182 $
RODN 170956Z 03008KT 10SM BKN030 OVC046 22/18 A2986 RMK AO2A SLP118 T02180180 $
RODN 170946Z 04006KT 10SM BKN030 OVC045 22/18 A2985 RMK AO2A SLP114 $
RODN 170856Z 05008KT 10SM OVC029 22/19 A2984 RMK AO2A SLP111 T02210185 50009 $
RODN 170756Z 04009KT 10SM FEW022 OVC029 23/19 A2983 RMK AO2A SLP107 T02260187 $
RODN 170656Z 03006KT 10SM FEW011 OVC028 23/19 A2983 RMK AO2A SLP107 T02260190 $
RODN 170626Z 04008KT 10SM SCT009 OVC027 23/19 A2982 RMK AO2A CIG 009V027 SLP104 $
RODN 170606Z 03008KT 10SM BKN009 OVC025 23/20 A2981 RMK AO2A CIG 009V025 BKN V SCT SLP100 $
RODN 170556Z COR 04007KT 10SM SCT009 OVC025 23/20 A2982 RMK AO2A SLP104 60027 T02270198 10228 20217 58012 $ COR 0607
RODN 170542Z 05006KT 8SM -SHRA SCT016 OVC024 23/20 A2981 RMK AO2A CIG 016V024 SLP100 $
RODN 170529Z 04005KT 3SM -SHRA SCT002 BKN016 OVC024 22/20 A2982 RMK AO2A CIG 015 RWY23 SLP104 $
RODN 170517Z 04008KT 5SM -SHRA SCT008 BKN014 OVC024 22/20 A2981 RMK AO2A CIG 009V014 PRESFR SLP101 $
RODN 170456Z 03007KT 4SM -SHRA FEW002 OVC009 22/20 A2984 RMK AO2A CIG 007 RWY23 SLP111 T02240195 $
RODN 170356Z 03005KT 8SM -SHRA BKN010 22/19 A2986 RMK AO2A CIG 009 RWY23 SLP118 T02240193 $
RODN 170345Z 01006KT 9SM -SHRA BKN010 OVC014 23/20 A2986 RMK AO2A CIG 009 RWY23 SLP118 $
RODN 170342Z 02005KT 8SM -SHRA BKN009 OVC014 23/20 A2986 RMK AO2A OVC V BKN SLP118 $
RODN 170332Z 04006KT 10SM BKN010 OVC014 23/20 A2985 RMK BKN V OVC SLP114 $
RODN 170256Z 04007KT 8SM -SHRA SCT008 BKN031 OVC045 23/20 A2985 RMK AO2A SLP114 60025 T02270198 58009 $
RODN 170250Z 04008KT 7SM -SHRA FEW001 SCT008 BKN031 OVC045 22/20 A2986 RMK AO2A SLP118 $
RODN 170239Z 07005KT 4SM -SHRA FEW001 FEW007 SCT022 BKN030 OVC047 22/19 A2986 RMK SLP118 $
RODN 170229Z 09007KT 1 1/4SM -SHRA FEW002 SCT007 OVC023 22/19 A2986 RMK AO2A VIS 1 1/4V4 CIG 013 RWY23 SLP117 $
RODN 170218Z 03007KT 5SM -SHRA SCT012 SCT017 OVC023 22/19 A2987 RMK AO2A CIG 012V023 SLP121 $
RODN 170207Z 02005KT 5SM -SHRA SCT007 BKN012 OVC023 22/20 A2988 RMK AO2A CIG 009V024 BKN V SCT SLP124 $
RODN 170156Z 02005KT 3SM -SHRA FEW010 BKN024 OVC033 22/19 A2987 RMK AO2A SLP121 P0001 T02230194 $
RODN 170146Z 02007KT 6SM -SHRA BKN024 OVC030 22/19 A2987 RMK AO2A CIG 024V029 SLP121 $
RODN 170056Z 05004KT 6SM -RA BR FEW010 BKN025 BKN030 OVC035 23/19 A2988 RMK AO2A BKN025 V OVC SLP124 T02260193 $
RODN 170050Z 05005KT 6SM -RA BR FEW010 BKN025 23/19 A2987 RMK SLP121 $
RODN 170006Z 01003KT 6SM BR FEW010 BKN021 OVC042 22/19 A2989 RMK AO2A BKN V SCT PRESRR SLP128 CIGS LWR E $
RODN 162356Z COR 05006KT 5SM -SHRA BR SCT010 BKN025 OVC042 22/19 A2987 RMK AO2A SLP121 CIGS LWR E 60073 T02150189 10227 20215 50006 $ COR 0002
RODN 162349Z 05006KT 5SM -SHRA BR SCT010 BKN025 OVC042 22/19 A2987 RMK AO2A SLP121 CIGS LWR E 60073 T02150189 10227 20215 50006 $
RODN 162320Z 02005KT 2 1/2SM -SHRA BR FEW025 OVC042 22/19 A2988 RMK AO2A VIS 2 1/4V4 VIS 2 RWY23 SLP124 $
RODN 162312Z 35004KT 3SM -SHRA FEW025 OVC042 22/19 A2987 RMK AO2A VIS 2 1/2 RWY23 SLP121 $
RODN 162256Z COR 00000KT 4SM -SHRA FEW001 SCT025 OVC050 22/19 A2987 RMK AO2A SLP121 T02180191 $ COR 2309
RODN 162234Z 05003KT 3SM -SHRA OVC042 22/19 A2987 RMK AO2A VIS 1 7/8 RWY23 SLP121 $
RODN 162221Z 04004KT 5SM -SHRA FEW017 OVC043 22/19 A2986 RMK AO2A SLP117 $
RODN 162156Z 12003KT 6SM -SHRA FEW001 OVC016 22/18 A2987 RMK AO2A LTG DSNT NE TSB35E45 CIG 016V021 CIG 012 RWY23 SLP121 60051 T02200180 $
RODN 162147Z COR 16004KT 1 5/8SM -TSRA SCT001 BKN021 OVC045 22/20 A2987 RMK AO2A VIS 3/4V1 5/8 VIS 1 1/8 RWY23 CIG 012 RWY23 SLP121 $ COR 2157
RODN 162145Z 15004KT 1 1/4SM -SHRA FEW001 BKN021 OVC047 22/20 A2987 RMK AO2A VIS 3/4V1 1/4 VIS 3/4 RWY23 CIG 012 RWY23 PRESRR SLP121 PWINO $
RODN 162135Z COR 15006KT 1SM R05/4000VP6000FT -SHRA SCT017 BKN046 22/20 A2985 RMK AO2A VIS 1V8 SLP114 $ COR 2152
RODN 162056Z 14003KT 10SM BKN049 BKN065 BKN140 22/20 A2984 RMK AO2A SLP111 T02210198 53001 $
RODN 161956Z 04003KT 10SM SCT170 22/21 A2982 RMK AO2A SLP104 T02210205 $
RODN 161856Z 03003KT 8SM BKN038 22/21 A2983 RMK AO2A SLP107 T02190205 $
RODN 161756Z 05004KT 10SM BKN075 23/20 A2984 RMK AO2A SLP110 T02250204 10236 20212 57010 $
RODN 161656Z 00000KT 10SM BKN150 22/20 A2985 RMK AO2A SLP114 T02150198 $
RODN 161556Z 01002KT 10SM FEW150 22/20 A2986 RMK AO2A SLP117 T02170198 $
RODN 161456Z 04003KT 10SM BKN120 22/21 A2987 RMK AO2A SLP121 T02230206 402760214 57002 $
RODN 161356Z 00000KT 10SM FEW150 23/21 A2987 RMK AO2A SLP120 T02310206 $
RODN 161256Z 01002KT 10SM CLR 23/21 A2987 RMK AO2A SLP121 T02280205 $
RODN 161156Z 36004KT 10SM SCT140 24/21 A2987 RMK AO2A SLP121 60000 T02360207 10274 20235 52010 $
RODN 161056Z 01005KT 10SM SCT170 24/21 A2986 RMK AO2A SLP117 T02400211 $
RODN 160956Z COR 03005KT 10SM SCT045 24/21 A2985 RMK AO2A SLP113 T02440213 $ COR 1015
RODN 160856Z 36007KT 10SM FEW060 24/21 A2984 RMK AO2A SLP111 T02440213 53007 $
RODN 160756Z 34008KT 10SM FEW150 26/21 A2984 RMK AO2A SLP110 T02580212 $
RODN 160656Z 34007KT 10SM SCT100 26/21 A2983 RMK AO2A SLP107 T02640214 $
RODN 160556Z 35007KT 10SM SCT070 27/21 A2982 RMK AO2A SLP103 T02720207 $
RODN 160456Z 33007KT 10SM FEW030 SCT120 27/22 A2983 RMK AO2A SLP107 T02650219 $
RODN 160356Z 30008KT 10SM FEW025 FEW170 27/19 A2984 RMK AO2A SLP110 T02720190 $
RODN 160256Z VRB05KT 10SM FEW030 SCT100 27/18 A2986 RMK AO2A SLP117 T02650178 57012 $
RODN 160156Z 26004KT 10SM FEW019 SCT027 27/18 A2988 RMK AO2A SLP124 T02660184 $
RODN 160056Z 05003KT 10SM FEW120 BKN150 26/21 A2990 RMK AO2A SLP131 T02580214 $
RODN 152356Z 02004KT 10SM FEW200 24/18 A2990 RMK A02A SLP131 T02440183 10244 20224 50007 $
RODN 152256Z 05006KT 10SM FEW210 24/21 A2990 RMK SLP131 T02350214 10235 20214 50009 PWINO $
RODN 152156Z 02004KT 10SM SCT038 OVC070 23/21 A2990 RMK AO2A SLP131 T02290213 $
RODN 152056Z 03005KT 10SM BKN027 23/21 A2988 RMK AO2A OVC V BKN SLP124 T02290213 55005 $
RODN 151956Z 36005KT 10SM OVC039 23/21 A2987 RMK AO2A SLP121 T02300212 $
RODN 151856Z 05006KT 10SM SCT023 OVC032 23/21 A2987 RMK AO2A SLP121 T02250209 $
RODN 151756Z 03003KT 10SM OVC032 23/21 A2989 RMK AO2A SLP127 T02250206 10228 20214 58006 $
RODN 151656Z 04004KT 10SM FEW031 FEW045 22/20 A2990 RMK AO2A SLP131 T02200204 $
RODN 151626Z 04004KT 10SM OVC029 23/21 A2991 RMK AO2A SLP134 $
RODN 151556Z 00000KT 10SM OVC030 23/21 A2991 RMK AO2A SLP134 T02260207 $
RODN 151456Z 05006KT 10SM OVC032 23/21 A2991 RMK AO2A SLP134 70385 T02260207 402530222 58003 $
RODN 151356Z 05009KT 10SM SCT013 OVC031 23/21 A2992 RMK AO2A SLP138 T02250208 $
RODN 151346Z 05009KT 10SM SCT012 OVC031 22/21 A2992 RMK AO2A SLP138 $
RODN 151256Z 03007KT 10SM OVC013 23/21 A2992 RMK AO2A OVC V BKN SLP138 T02250206 $
RODN 151246Z 04008KT 10SM BKN015 22/21 A2992 RMK AO2A BKN V SCT SLP138 $
RODN 151216Z 04010KT 10SM SCT012 22/21 A2992 RMK AO2A SLP138 $
RODN 151156Z 03012KT 10SM BKN012 OVC037 23/21 A2992 RMK AO2A OVC V BKN SLP138 60008 T02280209 10248 20227 51008 $
RODN 151146Z 04012KT 10SM BKN014 OVC037 23/21 A2992 RMK AO2A CIG 014V037 BKN V SCT SLP138 $
RODN 151056Z COR 03011KT 10SM OVC036 23/21 A2992 RMK AO2A SLP138 T02300211 $ COR 1110
RODN 150956Z COR 02012KT 10SM FEW016 OVC034 23/21 A2991 RMK AO2A SLP134 T02330214 $
RODN 150856Z 02010KT 10SM FEW015 OVC33 24/22 A2990 RMK AO2A SLP131 T02360217 52007 $
RODN 150756Z 04011KT 10SM SCT015 BKN030 25/22 A2988 RMK AO2A SLP124 T02450222 $
RODN 150656Z 06012KT 10SM SCT020 BKN030 25/22 A2988 RMK AO2A SLP124 T02470224 $
RODN 150556Z 07015KT 10SM DZ FEW015 SCT027 OVC035 25/23 A2987 RMK AO2A SLP121 T02450225 60037 10253 20224 56019 $